sensor_id;sensor_type;location;lat;lon;timestamp;P1;durP1;ratioP1;P2;durP2;ratioP2
66893;SDS011;53801;55.786;49.142;2023-03-31T00:00:18;5.17;;;0.50;;
66893;SDS011;53801;55.786;49.142;2023-03-31T00:02:44;3.28;;;0.40;;
66893;SDS011;53801;55.786;49.142;2023-03-31T00:05:10;1.10;;;0.40;;
66893;SDS011;53801;55.786;49.142;2023-03-31T00:07:36;2.42;;;0.50;;
66893;SDS011;53801;55.786;49.142;2023-03-31T00:10:04;2.35;;;0.52;;
66893;SDS011;53801;55.786;49.142;2023-03-31T00:12:30;1.60;;;0.40;;
66893;SDS011;53801;55.786;49.142;2023-03-31T00:14:55;1.43;;;0.40;;
66893;SDS011;53801;55.786;49.142;2023-03-31T00:17:21;2.05;;;0.50;;
66893;SDS011;53801;55.786;49.142;2023-03-31T00:19:46;1.90;;;0.53;;
66893;SDS011;53801;55.786;49.142;2023-03-31T00:22:14;1.38;;;0.40;;
66893;SDS011;53801;55.786;49.142;2023-03-31T00:24:43;2.90;;;0.40;;
66893;SDS011;53801;55.786;49.142;2023-03-31T00:27:08;2.90;;;0.97;;
66893;SDS011;53801;55.786;49.142;2023-03-31T00:29:35;1.65;;;0.60;;
66893;SDS011;53801;55.786;49.142;2023-03-31T00:32:01;2.00;;;0.50;;
66893;SDS011;53801;55.786;49.142;2023-03-31T00:34:27;3.03;;;0.63;;
66893;SDS011;53801;55.786;49.142;2023-03-31T00:36:52;2.30;;;0.60;;
66893;SDS011;53801;55.786;49.142;2023-03-31T00:39:21;1.95;;;0.50;;
66893;SDS011;53801;55.786;49.142;2023-03-31T00:41:47;9.10;;;0.50;;
66893;SDS011;53801;55.786;49.142;2023-03-31T00:49:41;2.70;;;0.45;;
66893;SDS011;53801;55.786;49.142;2023-03-31T00:52:22;2.70;;;0.38;;
66893;SDS011;53801;55.786;49.142;2023-03-31T00:54:53;1.93;;;0.50;;
66893;SDS011;53801;55.786;49.142;2023-03-31T00:57:20;1.73;;;0.40;;
66893;SDS011;53801;55.786;49.142;2023-03-31T00:59:57;1.10;;;0.32;;
66893;SDS011;53801;55.786;49.142;2023-03-31T01:02:23;3.72;;;0.50;;
66893;SDS011;53801;55.786;49.142;2023-03-31T01:04:53;1.00;;;0.30;;
66893;SDS011;53801;55.786;49.142;2023-03-31T01:07:21;3.03;;;0.70;;
66893;SDS011;53801;55.786;49.142;2023-03-31T01:09:48;1.80;;;0.50;;
66893;SDS011;53801;55.786;49.142;2023-03-31T01:12:14;3.30;;;0.50;;
66893;SDS011;53801;55.786;49.142;2023-03-31T01:14:41;1.90;;;0.45;;
66893;SDS011;53801;55.786;49.142;2023-03-31T01:17:06;3.63;;;0.70;;
66893;SDS011;53801;55.786;49.142;2023-03-31T01:32:47;2.42;;;0.60;;
66893;SDS011;53801;55.786;49.142;2023-03-31T01:48:21;1.90;;;0.50;;
66893;SDS011;53801;55.786;49.142;2023-03-31T01:50:58;2.17;;;0.55;;
66893;SDS011;53801;55.786;49.142;2023-03-31T01:53:32;1.50;;;0.60;;
66893;SDS011;53801;55.786;49.142;2023-03-31T01:56:06;2.35;;;0.40;;
66893;SDS011;53801;55.786;49.142;2023-03-31T02:01:46;2.67;;;0.57;;
66893;SDS011;53801;55.786;49.142;2023-03-31T02:03:54;3.83;;;0.40;;
66893;SDS011;53801;55.786;49.142;2023-03-31T02:06:22;3.53;;;0.60;;
66893;SDS011;53801;55.786;49.142;2023-03-31T02:08:53;2.08;;;0.60;;
66893;SDS011;53801;55.786;49.142;2023-03-31T02:11:19;4.78;;;0.60;;
66893;SDS011;53801;55.786;49.142;2023-03-31T02:13:46;5.22;;;0.55;;
66893;SDS011;53801;55.786;49.142;2023-03-31T02:16:13;1.88;;;0.60;;
66893;SDS011;53801;55.786;49.142;2023-03-31T02:18:41;3.10;;;0.80;;
66893;SDS011;53801;55.786;49.142;2023-03-31T02:21:08;2.80;;;1.08;;
66893;SDS011;53801;55.786;49.142;2023-03-31T02:23:35;1.77;;;0.60;;
66893;SDS011;53801;55.786;49.142;2023-03-31T02:26:02;1.75;;;0.43;;
66893;SDS011;53801;55.786;49.142;2023-03-31T02:28:28;1.48;;;0.50;;
66893;SDS011;53801;55.786;49.142;2023-03-31T02:31:18;2.70;;;0.60;;
66893;SDS011;53801;55.786;49.142;2023-03-31T02:33:46;2.78;;;0.77;;
66893;SDS011;53801;55.786;49.142;2023-03-31T02:36:12;1.75;;;0.40;;
66893;SDS011;53801;55.786;49.142;2023-03-31T02:38:39;1.73;;;0.40;;
66893;SDS011;53801;55.786;49.142;2023-03-31T02:41:07;8.55;;;0.90;;
66893;SDS011;53801;55.786;49.142;2023-03-31T02:43:33;2.10;;;0.50;;
66893;SDS011;53801;55.786;49.142;2023-03-31T02:45:58;4.17;;;0.73;;
66893;SDS011;53801;55.786;49.142;2023-03-31T03:08:28;3.95;;;0.57;;
66893;SDS011;53801;55.786;49.142;2023-03-31T03:14:12;2.20;;;0.70;;
66893;SDS011;53801;55.786;49.142;2023-03-31T03:16:45;2.00;;;0.40;;
66893;SDS011;53801;55.786;49.142;2023-03-31T03:19:16;1.70;;;0.50;;
66893;SDS011;53801;55.786;49.142;2023-03-31T03:21:42;20.65;;;1.30;;
66893;SDS011;53801;55.786;49.142;2023-03-31T03:24:10;4.03;;;0.73;;
66893;SDS011;53801;55.786;49.142;2023-03-31T03:26:35;2.77;;;0.50;;
66893;SDS011;53801;55.786;49.142;2023-03-31T03:29:01;2.83;;;0.80;;
66893;SDS011;53801;55.786;49.142;2023-03-31T03:31:26;1.73;;;0.60;;
66893;SDS011;53801;55.786;49.142;2023-03-31T03:33:52;3.97;;;0.70;;
66893;SDS011;53801;55.786;49.142;2023-03-31T03:36:17;2.73;;;0.50;;
66893;SDS011;53801;55.786;49.142;2023-03-31T03:38:43;0.98;;;0.50;;
66893;SDS011;53801;55.786;49.142;2023-03-31T03:41:08;2.83;;;0.40;;
66893;SDS011;53801;55.786;49.142;2023-03-31T03:43:34;4.13;;;0.60;;
66893;SDS011;53801;55.786;49.142;2023-03-31T03:46:02;2.65;;;0.50;;
66893;SDS011;53801;55.786;49.142;2023-03-31T03:48:30;10.02;;;0.93;;
66893;SDS011;53801;55.786;49.142;2023-03-31T03:50:58;3.08;;;0.50;;
66893;SDS011;53801;55.786;49.142;2023-03-31T03:53:23;5.30;;;0.75;;
66893;SDS011;53801;55.786;49.142;2023-03-31T03:55:49;3.45;;;0.43;;
66893;SDS011;53801;55.786;49.142;2023-03-31T03:58:15;3.10;;;0.65;;
66893;SDS011;53801;55.786;49.142;2023-03-31T04:00:41;4.67;;;0.73;;
66893;SDS011;53801;55.786;49.142;2023-03-31T04:03:06;2.13;;;0.73;;
66893;SDS011;53801;55.786;49.142;2023-03-31T04:05:32;2.10;;;0.57;;
66893;SDS011;53801;55.786;49.142;2023-03-31T04:07:57;4.50;;;0.90;;
66893;SDS011;53801;55.786;49.142;2023-03-31T04:10:22;5.87;;;1.33;;
66893;SDS011;53801;55.786;49.142;2023-03-31T04:12:48;8.75;;;1.83;;
66893;SDS011;53801;55.786;49.142;2023-03-31T04:15:13;2.10;;;0.60;;
66893;SDS011;53801;55.786;49.142;2023-03-31T04:17:39;4.10;;;0.73;;
66893;SDS011;53801;55.786;49.142;2023-03-31T04:20:08;5.03;;;0.90;;
66893;SDS011;53801;55.786;49.142;2023-03-31T04:22:34;5.00;;;1.00;;
66893;SDS011;53801;55.786;49.142;2023-03-31T04:25:08;4.55;;;0.75;;
66893;SDS011;53801;55.786;49.142;2023-03-31T04:27:43;5.43;;;0.95;;
66893;SDS011;53801;55.786;49.142;2023-03-31T04:30:15;6.10;;;1.50;;
66893;SDS011;53801;55.786;49.142;2023-03-31T04:32:55;6.70;;;1.20;;
66893;SDS011;53801;55.786;49.142;2023-03-31T04:35:21;4.05;;;0.95;;
66893;SDS011;53801;55.786;49.142;2023-03-31T04:37:50;2.85;;;0.43;;
66893;SDS011;53801;55.786;49.142;2023-03-31T04:40:17;2.45;;;0.73;;
66893;SDS011;53801;55.786;49.142;2023-03-31T04:42:42;3.50;;;1.20;;
66893;SDS011;53801;55.786;49.142;2023-03-31T04:45:08;5.03;;;1.23;;
66893;SDS011;53801;55.786;49.142;2023-03-31T04:47:34;2.23;;;1.00;;
66893;SDS011;53801;55.786;49.142;2023-03-31T04:50:00;3.78;;;1.42;;
66893;SDS011;53801;55.786;49.142;2023-03-31T04:52:25;6.20;;;0.90;;
66893;SDS011;53801;55.786;49.142;2023-03-31T04:54:51;4.40;;;0.70;;
66893;SDS011;53801;55.786;49.142;2023-03-31T04:57:16;4.23;;;1.17;;
66893;SDS011;53801;55.786;49.142;2023-03-31T04:59:42;3.03;;;0.60;;
66893;SDS011;53801;55.786;49.142;2023-03-31T05:02:07;1.73;;;0.70;;
66893;SDS011;53801;55.786;49.142;2023-03-31T05:04:33;7.47;;;1.20;;
66893;SDS011;53801;55.786;49.142;2023-03-31T05:06:58;4.93;;;1.07;;
66893;SDS011;53801;55.786;49.142;2023-03-31T05:09:24;4.00;;;0.70;;
66893;SDS011;53801;55.786;49.142;2023-03-31T05:11:50;6.47;;;1.30;;
66893;SDS011;53801;55.786;49.142;2023-03-31T05:14:15;2.90;;;0.77;;
66893;SDS011;53801;55.786;49.142;2023-03-31T05:16:41;5.23;;;1.37;;
66893;SDS011;53801;55.786;49.142;2023-03-31T05:19:07;7.20;;;1.23;;
66893;SDS011;53801;55.786;49.142;2023-03-31T05:21:32;6.83;;;0.80;;
66893;SDS011;53801;55.786;49.142;2023-03-31T05:23:58;5.63;;;1.00;;
66893;SDS011;53801;55.786;49.142;2023-03-31T05:26:24;6.07;;;1.17;;
66893;SDS011;53801;55.786;49.142;2023-03-31T05:28:52;4.13;;;0.80;;
66893;SDS011;53801;55.786;49.142;2023-03-31T05:31:18;5.60;;;0.90;;
66893;SDS011;53801;55.786;49.142;2023-03-31T05:33:44;7.95;;;1.70;;
66893;SDS011;53801;55.786;49.142;2023-03-31T05:36:10;3.83;;;0.90;;
66893;SDS011;53801;55.786;49.142;2023-03-31T05:38:35;6.97;;;0.90;;
66893;SDS011;53801;55.786;49.142;2023-03-31T05:41:01;5.43;;;0.90;;
66893;SDS011;53801;55.786;49.142;2023-03-31T05:43:27;4.40;;;0.95;;
66893;SDS011;53801;55.786;49.142;2023-03-31T05:45:52;4.53;;;0.83;;
66893;SDS011;53801;55.786;49.142;2023-03-31T05:48:18;9.70;;;1.10;;
66893;SDS011;53801;55.786;49.142;2023-03-31T05:50:43;9.52;;;1.33;;
66893;SDS011;53801;55.786;49.142;2023-03-31T05:53:09;10.85;;;1.10;;
66893;SDS011;53801;55.786;49.142;2023-03-31T05:55:35;10.70;;;1.27;;
66893;SDS011;53801;55.786;49.142;2023-03-31T05:58:00;3.40;;;0.80;;
66893;SDS011;53801;55.786;49.142;2023-03-31T06:00:25;13.57;;;1.20;;
66893;SDS011;53801;55.786;49.142;2023-03-31T06:02:51;5.80;;;0.90;;
66893;SDS011;53801;55.786;49.142;2023-03-31T06:05:16;2.70;;;1.00;;
66893;SDS011;53801;55.786;49.142;2023-03-31T06:07:42;2.73;;;1.10;;
66893;SDS011;53801;55.786;49.142;2023-03-31T06:10:07;3.17;;;0.80;;
66893;SDS011;53801;55.786;49.142;2023-03-31T06:12:35;2.72;;;0.98;;
66893;SDS011;53801;55.786;49.142;2023-03-31T06:15:00;7.18;;;0.90;;
66893;SDS011;53801;55.786;49.142;2023-03-31T06:17:26;4.73;;;0.77;;
66893;SDS011;53801;55.786;49.142;2023-03-31T06:19:52;7.25;;;1.00;;
66893;SDS011;53801;55.786;49.142;2023-03-31T06:22:17;6.07;;;0.80;;
66893;SDS011;53801;55.786;49.142;2023-03-31T06:24:42;6.27;;;0.90;;
66893;SDS011;53801;55.786;49.142;2023-03-31T06:27:08;3.27;;;1.10;;
66893;SDS011;53801;55.786;49.142;2023-03-31T06:29:33;3.47;;;0.80;;
66893;SDS011;53801;55.786;49.142;2023-03-31T06:31:59;5.67;;;1.63;;
66893;SDS011;53801;55.786;49.142;2023-03-31T06:34:25;9.25;;;1.73;;
66893;SDS011;53801;55.786;49.142;2023-03-31T06:36:50;3.07;;;0.73;;
66893;SDS011;53801;55.786;49.142;2023-03-31T06:39:16;6.93;;;1.20;;
66893;SDS011;53801;55.786;49.142;2023-03-31T06:41:41;4.30;;;1.60;;
66893;SDS011;53801;55.786;49.142;2023-03-31T06:44:07;3.47;;;1.27;;
66893;SDS011;53801;55.786;49.142;2023-03-31T06:46:32;7.30;;;1.17;;
66893;SDS011;53801;55.786;49.142;2023-03-31T06:49:00;5.55;;;1.10;;
66893;SDS011;53801;55.786;49.142;2023-03-31T06:51:26;7.73;;;1.37;;
66893;SDS011;53801;55.786;49.142;2023-03-31T06:53:52;7.10;;;1.27;;
66893;SDS011;53801;55.786;49.142;2023-03-31T06:56:17;5.05;;;1.25;;
66893;SDS011;53801;55.786;49.142;2023-03-31T06:58:42;3.73;;;1.10;;
66893;SDS011;53801;55.786;49.142;2023-03-31T07:01:08;8.07;;;1.50;;
66893;SDS011;53801;55.786;49.142;2023-03-31T07:03:35;9.93;;;1.60;;
66893;SDS011;53801;55.786;49.142;2023-03-31T07:06:00;5.37;;;1.60;;
66893;SDS011;53801;55.786;49.142;2023-03-31T07:08:26;7.67;;;1.43;;
66893;SDS011;53801;55.786;49.142;2023-03-31T07:10:55;12.43;;;1.80;;
66893;SDS011;53801;55.786;49.142;2023-03-31T07:13:22;7.75;;;1.80;;
66893;SDS011;53801;55.786;49.142;2023-03-31T07:15:47;14.30;;;1.90;;
66893;SDS011;53801;55.786;49.142;2023-03-31T07:18:13;7.33;;;2.50;;
66893;SDS011;53801;55.786;49.142;2023-03-31T07:20:40;6.03;;;1.55;;
66893;SDS011;53801;55.786;49.142;2023-03-31T07:23:06;5.87;;;1.33;;
66893;SDS011;53801;55.786;49.142;2023-03-31T07:25:32;5.72;;;1.58;;
66893;SDS011;53801;55.786;49.142;2023-03-31T07:27:57;5.25;;;1.90;;
66893;SDS011;53801;55.786;49.142;2023-03-31T07:30:23;3.50;;;1.25;;
66893;SDS011;53801;55.786;49.142;2023-03-31T07:32:49;5.17;;;1.30;;
66893;SDS011;53801;55.786;49.142;2023-03-31T07:35:14;7.22;;;1.77;;
66893;SDS011;53801;55.786;49.142;2023-03-31T07:37:41;9.63;;;2.07;;
66893;SDS011;53801;55.786;49.142;2023-03-31T07:40:10;6.53;;;1.42;;
66893;SDS011;53801;55.786;49.142;2023-03-31T07:42:38;9.35;;;2.30;;
66893;SDS011;53801;55.786;49.142;2023-03-31T07:45:14;5.63;;;2.00;;
66893;SDS011;53801;55.786;49.142;2023-03-31T07:47:45;6.75;;;1.50;;
66893;SDS011;53801;55.786;49.142;2023-03-31T07:50:12;7.47;;;1.25;;
66893;SDS011;53801;55.786;49.142;2023-03-31T07:52:40;6.03;;;1.30;;
66893;SDS011;53801;55.786;49.142;2023-03-31T07:55:07;9.05;;;1.40;;
66893;SDS011;53801;55.786;49.142;2023-03-31T07:57:42;7.40;;;1.30;;
66893;SDS011;53801;55.786;49.142;2023-03-31T08:00:10;9.68;;;1.50;;
66893;SDS011;53801;55.786;49.142;2023-03-31T08:02:36;8.02;;;1.50;;
66893;SDS011;53801;55.786;49.142;2023-03-31T08:05:03;4.35;;;1.42;;
66893;SDS011;53801;55.786;49.142;2023-03-31T08:07:32;7.50;;;0.90;;
66893;SDS011;53801;55.786;49.142;2023-03-31T08:09:58;8.77;;;1.50;;
66893;SDS011;53801;55.786;49.142;2023-03-31T08:12:23;4.47;;;1.35;;
66893;SDS011;53801;55.786;49.142;2023-03-31T08:14:49;10.73;;;1.77;;
66893;SDS011;53801;55.786;49.142;2023-03-31T08:17:14;2.70;;;1.00;;
66893;SDS011;53801;55.786;49.142;2023-03-31T08:19:40;6.45;;;1.40;;
66893;SDS011;53801;55.786;49.142;2023-03-31T08:22:05;6.47;;;1.27;;
66893;SDS011;53801;55.786;49.142;2023-03-31T08:24:31;8.80;;;1.40;;
66893;SDS011;53801;55.786;49.142;2023-03-31T08:26:56;13.40;;;1.80;;
66893;SDS011;53801;55.786;49.142;2023-03-31T08:29:21;3.83;;;1.30;;
66893;SDS011;53801;55.786;49.142;2023-03-31T08:31:47;7.28;;;1.58;;
66893;SDS011;53801;55.786;49.142;2023-03-31T08:34:12;7.47;;;1.50;;
66893;SDS011;53801;55.786;49.142;2023-03-31T08:36:37;6.20;;;2.07;;
66893;SDS011;53801;55.786;49.142;2023-03-31T08:39:03;12.93;;;2.03;;
66893;SDS011;53801;55.786;49.142;2023-03-31T08:44:18;5.43;;;1.33;;
66893;SDS011;53801;55.786;49.142;2023-03-31T08:46:44;6.40;;;1.90;;
66893;SDS011;53801;55.786;49.142;2023-03-31T08:49:13;7.25;;;1.35;;
66893;SDS011;53801;55.786;49.142;2023-03-31T08:51:41;9.33;;;1.53;;
66893;SDS011;53801;55.786;49.142;2023-03-31T08:54:25;9.23;;;1.42;;
66893;SDS011;53801;55.786;49.142;2023-03-31T08:56:52;12.80;;;1.42;;
66893;SDS011;53801;55.786;49.142;2023-03-31T08:59:30;8.75;;;1.40;;
66893;SDS011;53801;55.786;49.142;2023-03-31T09:02:08;3.83;;;0.93;;
66893;SDS011;53801;55.786;49.142;2023-03-31T09:12:37;5.32;;;1.30;;
66893;SDS011;53801;55.786;49.142;2023-03-31T09:15:01;12.65;;;1.80;;
66893;SDS011;53801;55.786;49.142;2023-03-31T09:17:42;4.45;;;1.00;;
66893;SDS011;53801;55.786;49.142;2023-03-31T09:20:13;14.75;;;1.55;;
66893;SDS011;53801;55.786;49.142;2023-03-31T09:23:23;4.47;;;1.30;;
66893;SDS011;53801;55.786;49.142;2023-03-31T09:25:33;7.80;;;1.17;;
66893;SDS011;53801;55.786;49.142;2023-03-31T09:28:00;14.45;;;1.60;;
66893;SDS011;53801;55.786;49.142;2023-03-31T09:30:31;4.15;;;1.20;;
66893;SDS011;53801;55.786;49.142;2023-03-31T09:33:17;4.47;;;1.50;;
66893;SDS011;53801;55.786;49.142;2023-03-31T09:35:43;6.17;;;1.40;;
66893;SDS011;53801;55.786;49.142;2023-03-31T09:38:10;3.33;;;1.00;;
66893;SDS011;53801;55.786;49.142;2023-03-31T09:40:35;3.43;;;1.07;;
66893;SDS011;53801;55.786;49.142;2023-03-31T09:43:09;2.70;;;1.13;;
66893;SDS011;53801;55.786;49.142;2023-03-31T09:45:39;5.25;;;1.10;;
66893;SDS011;53801;55.786;49.142;2023-03-31T09:48:13;5.97;;;1.43;;
66893;SDS011;53801;55.786;49.142;2023-03-31T09:50:44;9.77;;;1.48;;
66893;SDS011;53801;55.786;49.142;2023-03-31T09:53:33;6.43;;;1.33;;
66893;SDS011;53801;55.786;49.142;2023-03-31T09:56:03;5.05;;;0.98;;
66893;SDS011;53801;55.786;49.142;2023-03-31T09:58:29;4.03;;;1.08;;
66893;SDS011;53801;55.786;49.142;2023-03-31T10:00:59;6.07;;;1.33;;
66893;SDS011;53801;55.786;49.142;2023-03-31T10:03:26;6.53;;;1.83;;
66893;SDS011;53801;55.786;49.142;2023-03-31T10:05:55;5.38;;;1.63;;
66893;SDS011;53801;55.786;49.142;2023-03-31T10:08:25;10.48;;;1.40;;
66893;SDS011;53801;55.786;49.142;2023-03-31T10:10:52;6.65;;;1.67;;
66893;SDS011;53801;55.786;49.142;2023-03-31T10:13:34;8.50;;;1.50;;
66893;SDS011;53801;55.786;49.142;2023-03-31T10:16:02;9.60;;;1.52;;
66893;SDS011;53801;55.786;49.142;2023-03-31T10:18:35;4.22;;;1.15;;
66893;SDS011;53801;55.786;49.142;2023-03-31T10:21:02;7.70;;;1.30;;
66893;SDS011;53801;55.786;49.142;2023-03-31T10:23:29;9.32;;;1.48;;
66893;SDS011;53801;55.786;49.142;2023-03-31T10:25:55;8.10;;;1.27;;
66893;SDS011;53801;55.786;49.142;2023-03-31T10:28:20;4.88;;;1.27;;
66893;SDS011;53801;55.786;49.142;2023-03-31T10:30:56;3.15;;;0.90;;
66893;SDS011;53801;55.786;49.142;2023-03-31T10:33:25;3.50;;;1.33;;
66893;SDS011;53801;55.786;49.142;2023-03-31T10:35:58;7.40;;;1.42;;
66893;SDS011;53801;55.786;49.142;2023-03-31T10:38:33;5.18;;;1.27;;
66893;SDS011;53801;55.786;49.142;2023-03-31T10:41:03;7.93;;;1.27;;
66893;SDS011;53801;55.786;49.142;2023-03-31T10:43:29;8.27;;;1.73;;
66893;SDS011;53801;55.786;49.142;2023-03-31T10:45:56;6.35;;;1.27;;
66893;SDS011;53801;55.786;49.142;2023-03-31T10:48:23;5.30;;;1.10;;
66893;SDS011;53801;55.786;49.142;2023-03-31T10:50:49;7.50;;;1.70;;
66893;SDS011;53801;55.786;49.142;2023-03-31T10:53:15;3.63;;;1.33;;
66893;SDS011;53801;55.786;49.142;2023-03-31T10:55:48;4.68;;;1.58;;
66893;SDS011;53801;55.786;49.142;2023-03-31T11:08:42;10.93;;;1.63;;
66893;SDS011;53801;55.786;49.142;2023-03-31T11:11:18;6.50;;;1.55;;
66893;SDS011;53801;55.786;49.142;2023-03-31T11:14:03;5.20;;;1.30;;
66893;SDS011;53801;55.786;49.142;2023-03-31T11:16:38;6.70;;;1.30;;
66893;SDS011;53801;55.786;49.142;2023-03-31T11:19:19;10.13;;;1.70;;
66893;SDS011;53801;55.786;49.142;2023-03-31T11:22:02;6.32;;;2.40;;
66893;SDS011;53801;55.786;49.142;2023-03-31T11:24:35;3.85;;;1.25;;
66893;SDS011;53801;55.786;49.142;2023-03-31T11:42:48;3.50;;;1.23;;
66893;SDS011;53801;55.786;49.142;2023-03-31T11:45:16;3.00;;;1.35;;
66893;SDS011;53801;55.786;49.142;2023-03-31T11:47:42;4.65;;;1.40;;
66893;SDS011;53801;55.786;49.142;2023-03-31T11:50:11;5.67;;;1.60;;
66893;SDS011;53801;55.786;49.142;2023-03-31T11:52:39;5.97;;;1.40;;
66893;SDS011;53801;55.786;49.142;2023-03-31T11:57:45;5.10;;;1.50;;
66893;SDS011;53801;55.786;49.142;2023-03-31T12:00:16;5.93;;;1.55;;
66893;SDS011;53801;55.786;49.142;2023-03-31T12:02:58;5.20;;;1.60;;
66893;SDS011;53801;55.786;49.142;2023-03-31T12:05:38;3.25;;;1.48;;
66893;SDS011;53801;55.786;49.142;2023-03-31T12:08:07;6.95;;;1.67;;
66893;SDS011;53801;55.786;49.142;2023-03-31T12:10:36;4.82;;;1.83;;
66893;SDS011;53801;55.786;49.142;2023-03-31T12:18:33;7.55;;;1.95;;
66893;SDS011;53801;55.786;49.142;2023-03-31T12:21:01;4.10;;;1.70;;
66893;SDS011;53801;55.786;49.142;2023-03-31T12:23:28;6.18;;;2.58;;
66893;SDS011;53801;55.786;49.142;2023-03-31T12:26:06;6.28;;;2.47;;
66893;SDS011;53801;55.786;49.142;2023-03-31T12:28:35;7.33;;;2.77;;
66893;SDS011;53801;55.786;49.142;2023-03-31T12:31:02;5.90;;;2.85;;
66893;SDS011;53801;55.786;49.142;2023-03-31T12:33:30;7.82;;;2.60;;
66893;SDS011;53801;55.786;49.142;2023-03-31T12:38:45;6.13;;;2.42;;
66893;SDS011;53801;55.786;49.142;2023-03-31T12:52:24;6.82;;;2.33;;
66893;SDS011;53801;55.786;49.142;2023-03-31T12:57:25;13.35;;;4.68;;
66893;SDS011;53801;55.786;49.142;2023-03-31T13:00:08;7.07;;;2.33;;
66893;SDS011;53801;55.786;49.142;2023-03-31T13:02:41;6.57;;;2.60;;
66893;SDS011;53801;55.786;49.142;2023-03-31T13:08:08;6.40;;;2.90;;
66893;SDS011;53801;55.786;49.142;2023-03-31T13:13:35;7.18;;;2.88;;
66893;SDS011;53801;55.786;49.142;2023-03-31T13:16:01;7.27;;;2.90;;
66893;SDS011;53801;55.786;49.142;2023-03-31T13:18:27;8.43;;;2.80;;
66893;SDS011;53801;55.786;49.142;2023-03-31T13:20:59;8.38;;;3.15;;
66893;SDS011;53801;55.786;49.142;2023-03-31T13:23:25;7.28;;;3.03;;
66893;SDS011;53801;55.786;49.142;2023-03-31T13:25:52;11.47;;;4.90;;
66893;SDS011;53801;55.786;49.142;2023-03-31T13:33:17;7.07;;;2.70;;
66893;SDS011;53801;55.786;49.142;2023-03-31T13:35:45;7.05;;;3.25;;
66893;SDS011;53801;55.786;49.142;2023-03-31T13:49:34;9.57;;;4.07;;
66893;SDS011;53801;55.786;49.142;2023-03-31T13:51:41;10.43;;;3.90;;
66893;SDS011;53801;55.786;49.142;2023-03-31T14:01:45;11.07;;;3.50;;
66893;SDS011;53801;55.786;49.142;2023-03-31T14:06:58;6.75;;;3.42;;
66893;SDS011;53801;55.786;49.142;2023-03-31T14:09:35;5.38;;;2.42;;
66893;SDS011;53801;55.786;49.142;2023-03-31T14:12:17;7.53;;;3.45;;
66893;SDS011;53801;55.786;49.142;2023-03-31T14:14:43;6.80;;;3.00;;
66893;SDS011;53801;55.786;49.142;2023-03-31T14:17:08;7.53;;;3.40;;
66893;SDS011;53801;55.786;49.142;2023-03-31T14:22:22;6.13;;;2.97;;
66893;SDS011;53801;55.786;49.142;2023-03-31T14:27:39;7.57;;;3.10;;
66893;SDS011;53801;55.786;49.142;2023-03-31T14:30:15;5.47;;;2.67;;
66893;SDS011;53801;55.786;49.142;2023-03-31T14:33:31;6.60;;;2.53;;
66893;SDS011;53801;55.786;49.142;2023-03-31T14:35:40;5.57;;;2.65;;
66893;SDS011;53801;55.786;49.142;2023-03-31T14:38:12;7.47;;;3.53;;
66893;SDS011;53801;55.786;49.142;2023-03-31T14:40:43;7.60;;;3.15;;
66893;SDS011;53801;55.786;49.142;2023-03-31T14:43:32;7.25;;;3.38;;
66893;SDS011;53801;55.786;49.142;2023-03-31T14:46:19;11.67;;;4.30;;
66893;SDS011;53801;55.786;49.142;2023-03-31T14:48:43;9.20;;;4.45;;
66893;SDS011;53801;55.786;49.142;2023-03-31T14:51:10;8.32;;;4.07;;
66893;SDS011;53801;55.786;49.142;2023-03-31T14:53:36;11.43;;;4.85;;
66893;SDS011;53801;55.786;49.142;2023-03-31T14:56:03;13.70;;;5.72;;
66893;SDS011;53801;55.786;49.142;2023-03-31T14:58:31;11.30;;;5.50;;
66893;SDS011;53801;55.786;49.142;2023-03-31T15:00:59;11.18;;;4.90;;
66893;SDS011;53801;55.786;49.142;2023-03-31T15:03:24;13.50;;;5.68;;
66893;SDS011;53801;55.786;49.142;2023-03-31T15:05:54;12.95;;;4.93;;
66893;SDS011;53801;55.786;49.142;2023-03-31T15:08:20;10.60;;;5.18;;
66893;SDS011;53801;55.786;49.142;2023-03-31T15:10:48;12.53;;;5.63;;
66893;SDS011;53801;55.786;49.142;2023-03-31T15:13:18;11.57;;;5.40;;
66893;SDS011;53801;55.786;49.142;2023-03-31T15:15:44;12.20;;;6.50;;
66893;SDS011;53801;55.786;49.142;2023-03-31T15:18:11;13.98;;;6.05;;
66893;SDS011;53801;55.786;49.142;2023-03-31T15:20:39;14.88;;;5.72;;
66893;SDS011;53801;55.786;49.142;2023-03-31T15:23:26;15.38;;;6.53;;
66893;SDS011;53801;55.786;49.142;2023-03-31T15:25:56;12.30;;;5.70;;
66893;SDS011;53801;55.786;49.142;2023-03-31T15:28:22;13.45;;;5.68;;
66893;SDS011;53801;55.786;49.142;2023-03-31T15:30:48;10.33;;;4.53;;
66893;SDS011;53801;55.786;49.142;2023-03-31T15:33:19;9.75;;;5.53;;
66893;SDS011;53801;55.786;49.142;2023-03-31T15:35:46;11.80;;;5.45;;
66893;SDS011;53801;55.786;49.142;2023-03-31T15:38:12;12.03;;;5.23;;
66893;SDS011;53801;55.786;49.142;2023-03-31T15:40:40;11.50;;;5.85;;
66893;SDS011;53801;55.786;49.142;2023-03-31T15:43:18;9.52;;;4.07;;
66893;SDS011;53801;55.786;49.142;2023-03-31T15:45:54;13.52;;;5.93;;
66893;SDS011;53801;55.786;49.142;2023-03-31T15:50:49;12.37;;;5.90;;
66893;SDS011;53801;55.786;49.142;2023-03-31T15:53:35;10.05;;;5.03;;
66893;SDS011;53801;55.786;49.142;2023-03-31T15:56:02;13.00;;;5.70;;
66893;SDS011;53801;55.786;49.142;2023-03-31T16:01:13;9.77;;;4.53;;
66893;SDS011;53801;55.786;49.142;2023-03-31T16:03:39;10.57;;;4.95;;
66893;SDS011;53801;55.786;49.142;2023-03-31T16:08:37;14.20;;;4.70;;
66893;SDS011;53801;55.786;49.142;2023-03-31T16:11:04;14.50;;;5.47;;
66893;SDS011;53801;55.786;49.142;2023-03-31T16:13:31;13.18;;;5.85;;
66893;SDS011;53801;55.786;49.142;2023-03-31T16:15:57;10.98;;;4.82;;
66893;SDS011;53801;55.786;49.142;2023-03-31T16:18:31;17.53;;;6.03;;
66893;SDS011;53801;55.786;49.142;2023-03-31T16:21:01;14.88;;;6.30;;
66893;SDS011;53801;55.786;49.142;2023-03-31T16:23:29;12.65;;;5.80;;
66893;SDS011;53801;55.786;49.142;2023-03-31T16:25:55;13.13;;;6.18;;
66893;SDS011;53801;55.786;49.142;2023-03-31T16:28:31;14.83;;;6.40;;
66893;SDS011;53801;55.786;49.142;2023-03-31T16:31:03;13.70;;;6.15;;
66893;SDS011;53801;55.786;49.142;2023-03-31T16:33:51;17.52;;;6.93;;
66893;SDS011;53801;55.786;49.142;2023-03-31T16:36:17;18.02;;;6.35;;
66893;SDS011;53801;55.786;49.142;2023-03-31T16:38:42;13.03;;;5.67;;
66893;SDS011;53801;55.786;49.142;2023-03-31T16:41:08;13.73;;;6.40;;
66893;SDS011;53801;55.786;49.142;2023-03-31T16:43:33;16.10;;;6.20;;
66893;SDS011;53801;55.786;49.142;2023-03-31T16:46:00;15.53;;;6.77;;
66893;SDS011;53801;55.786;49.142;2023-03-31T16:48:28;16.67;;;6.53;;
66893;SDS011;53801;55.786;49.142;2023-03-31T16:50:54;14.15;;;6.43;;
66893;SDS011;53801;55.786;49.142;2023-03-31T16:53:21;14.82;;;6.88;;
66893;SDS011;53801;55.786;49.142;2023-03-31T16:55:47;16.90;;;7.30;;
66893;SDS011;53801;55.786;49.142;2023-03-31T16:58:12;17.75;;;7.75;;
66893;SDS011;53801;55.786;49.142;2023-03-31T17:00:41;15.80;;;7.27;;
66893;SDS011;53801;55.786;49.142;2023-03-31T17:03:07;16.15;;;7.00;;
66893;SDS011;53801;55.786;49.142;2023-03-31T17:05:40;16.73;;;6.80;;
66893;SDS011;53801;55.786;49.142;2023-03-31T17:08:06;17.42;;;7.30;;
66893;SDS011;53801;55.786;49.142;2023-03-31T17:10:32;16.73;;;7.30;;
66893;SDS011;53801;55.786;49.142;2023-03-31T17:12:58;18.13;;;7.75;;
66893;SDS011;53801;55.786;49.142;2023-03-31T17:15:24;16.47;;;6.57;;
66893;SDS011;53801;55.786;49.142;2023-03-31T17:17:49;16.73;;;6.47;;
66893;SDS011;53801;55.786;49.142;2023-03-31T17:20:15;17.33;;;7.23;;
66893;SDS011;53801;55.786;49.142;2023-03-31T17:22:40;17.13;;;7.53;;